Time;durP1;ratioP1;P1;durP2;ratioP2;P2;SDS_P1;SDS_P2;PMS_P1;PMS_P2;Temp;Humidity;BMP_temperature;BMP_pressure;BME280_temperature;BME280_humidity;BME280_pressure;Samples;Min_cycle;Max_cycle;Signal;HPM_P1;HPM_P2
2023/01/09 00:00:47;;;;;;;1.50;1.03;;;;;;;5.06;100.00;99241.34;5243090;28;20120;-72
2023/01/09 00:03:19;;;;;;;2.35;1.67;;;;;;;5.03;100.00;99233.63;5242891;28;20040;-72
2023/01/09 00:05:50;;;;;;;7.67;1.97;;;;;;;5.00;100.00;99233.69;5243116;28;20473;-72
2023/01/09 00:08:22;;;;;;;3.80;1.60;;;;;;;4.92;100.00;99231.19;5242602;28;20058;-72
2023/01/09 00:10:53;;;;;;;1.50;1.10;;;;;;;4.87;100.00;99237.31;5243016;28;20037;-73
2023/01/09 00:13:24;;;;;;;3.00;1.00;;;;;;;4.81;100.00;99240.00;5242628;28;20032;-72
2023/01/09 00:15:56;;;;;;;3.63;1.40;;;;;;;4.77;100.00;99246.94;5242510;28;20028;-72
2023/01/09 00:18:27;;;;;;;3.80;1.50;;;;;;;4.70;100.00;99245.28;5242961;28;20135;-73
2023/01/09 00:21:03;;;;;;;3.37;1.33;;;;;;;4.69;100.00;99241.03;5242700;28;20492;-73
2023/01/09 00:23:35;;;;;;;2.70;1.30;;;;;;;4.64;100.00;99258.31;5242546;28;20079;-73
2023/01/09 00:26:10;;;;;;;3.70;1.60;;;;;;;4.59;100.00;99257.47;5241952;28;20030;-73
2023/01/09 00:28:42;;;;;;;2.85;1.30;;;;;;;4.55;100.00;99257.53;5242472;28;20029;-73
2023/01/09 00:31:14;;;;;;;3.00;1.50;;;;;;;4.53;100.00;99253.28;5242201;28;20026;-73
2023/01/09 00:33:57;;;;;;;1.73;1.33;;;;;;;4.48;100.00;99260.22;5242312;28;20040;-73
2023/01/09 00:36:28;;;;;;;2.63;1.25;;;;;;;4.45;100.00;99260.25;5241059;28;20116;-73
2023/01/09 00:39:00;;;;;;;3.43;1.40;;;;;;;4.40;100.00;99254.31;5242339;28;20180;-73
2023/01/09 00:41:45;;;;;;;3.53;1.70;;;;;;;4.44;100.00;99259.38;5242072;28;20473;-73
2023/01/09 00:44:25;;;;;;;4.75;1.52;;;;;;;4.40;100.00;99256.88;5241056;28;20029;-73
2023/01/09 00:47:06;;;;;;;1.85;1.30;;;;;;;4.35;100.00;99260.38;5244540;28;20072;-72
2023/01/09 00:49:38;;;;;;;5.03;1.20;;;;;;;4.33;100.00;99258.66;5246513;28;20037;-73
2023/01/09 00:52:11;;;;;;;4.13;1.23;;;;;;;4.33;100.00;99266.41;5246277;28;20033;-73
2023/01/09 00:54:43;;;;;;;2.47;1.50;;;;;;;4.31;100.00;99261.25;5246355;28;20473;-73
2023/01/09 00:57:15;;;;;;;3.17;1.63;;;;;;;4.25;100.00;99257.91;5245449;28;20100;-72
2023/01/09 00:59:46;;;;;;;2.77;1.60;;;;;;;4.28;100.00;99258.75;5246477;28;20128;-73
2023/01/09 01:02:18;;;;;;;3.63;1.50;;;;;;;4.26;100.00;99262.19;5246034;28;20029;-72
2023/01/09 01:07:40;;;;;;;3.15;1.48;;;;;;;4.22;100.00;99265.69;5245883;28;20030;-73
2023/01/09 01:10:15;;;;;;;3.20;1.85;;;;;;;4.23;100.00;99252.75;5246077;28;20548;-72
2023/01/09 01:12:47;;;;;;;2.83;1.58;;;;;;;4.20;100.00;99268.25;5245976;28;20037;-72
2023/01/09 01:15:20;;;;;;;2.80;1.50;;;;;;;4.15;100.00;99275.22;5245962;28;20388;-72
2023/01/09 01:17:51;;;;;;;5.07;2.00;;;;;;;4.08;100.00;99266.69;5246020;28;20068;-72
2023/01/09 01:20:22;;;;;;;5.87;2.10;;;;;;;4.08;100.00;99269.25;5245944;28;20068;-72
2023/01/09 01:22:54;;;;;;;5.57;2.00;;;;;;;4.06;100.00;99273.59;5245796;28;20056;-72
2023/01/09 01:25:26;;;;;;;3.00;1.80;;;;;;;4.04;100.00;99279.63;5245161;28;20029;-72
2023/01/09 01:27:57;;;;;;;7.50;2.13;;;;;;;4.03;100.00;99280.53;5245717;28;20036;-72
2023/01/09 01:30:30;;;;;;;4.67;1.97;;;;;;;3.98;100.00;99283.97;5245336;28;20435;-72
2023/01/09 01:33:01;;;;;;;4.95;1.75;;;;;;;3.95;100.00;99281.44;5245519;28;20400;-71
2023/01/09 01:35:33;;;;;;;5.93;2.10;;;;;;;3.91;100.00;99282.34;5245819;28;20037;-72
2023/01/09 01:38:04;;;;;;;3.80;1.87;;;;;;;3.89;100.00;99291.78;5245279;28;20068;-72
2023/01/09 01:40:37;;;;;;;7.13;1.90;;;;;;;3.87;100.00;99285.81;5245555;28;20319;-72
2023/01/09 01:43:11;;;;;;;4.13;1.83;;;;;;;3.87;100.00;99283.22;5245291;28;20419;-72
2023/01/09 01:45:42;;;;;;;6.32;2.10;;;;;;;3.85;100.00;99287.56;5245098;28;20018;-71
2023/01/09 01:48:22;;;;;;;6.07;2.20;;;;;;;3.81;100.00;99289.28;5245260;28;20034;-71
2023/01/09 01:51:04;;;;;;;4.45;1.92;;;;;;;3.81;100.00;99303.91;5245068;28;20030;-71
2023/01/09 01:53:50;;;;;;;5.18;2.03;;;;;;;3.79;100.00;99292.75;5245405;28;20037;-71
2023/01/09 01:56:26;;;;;;;4.93;2.08;;;;;;;3.75;100.00;99297.09;5244708;28;20047;-72
2023/01/09 01:59:06;;;;;;;5.07;1.92;;;;;;;3.76;100.00;99295.38;5241158;28;20039;-72
2023/01/09 02:01:41;;;;;;;4.72;1.73;;;;;;;3.73;100.00;99292.81;5240514;28;20032;-72
2023/01/09 02:04:12;;;;;;;8.48;2.22;;;;;;;3.69;100.00;99297.16;5244484;28;20056;-72
2023/01/09 02:06:47;;;;;;;7.60;2.40;;;;;;;3.70;100.00;99298.00;5244791;28;20034;-72
2023/01/09 02:09:21;;;;;;;4.07;1.90;;;;;;;3.66;100.00;99304.91;5243313;28;20539;-73
2023/01/09 02:11:56;;;;;;;6.88;2.20;;;;;;;3.65;100.00;99304.06;5237602;28;20046;-72
2023/01/09 02:14:30;;;;;;;4.22;1.90;;;;;;;3.61;100.00;99302.38;5244949;28;20030;-73
2023/01/09 02:17:14;;;;;;;5.50;2.65;;;;;;;3.59;100.00;99293.81;5228240;28;20453;-73
2023/01/09 02:20:00;;;;;;;7.38;2.00;;;;;;;3.58;100.00;99298.97;5224172;28;20030;-73
2023/01/09 02:22:51;;;;;;;5.93;2.22;;;;;;;3.53;100.00;99298.16;5223876;28;20547;-73
2023/01/09 02:25:51;;;;;;;6.53;2.70;;;;;;;3.56;100.00;99296.41;5229108;28;20045;-73
2023/01/09 02:28:49;;;;;;;4.80;2.17;;;;;;;3.51;100.00;99302.44;5244256;28;20022;-73
2023/01/09 02:31:31;;;;;;;5.53;1.80;;;;;;;3.47;100.00;99292.16;5234877;28;20492;-72
2023/01/09 02:34:27;;;;;;;11.48;3.08;;;;;;;3.46;100.00;99295.63;5242857;28;20099;-73
2023/01/09 02:37:07;;;;;;;8.38;2.40;;;;;;;3.47;100.00;99288.75;5234199;28;20056;-73
2023/01/09 02:40:02;;;;;;;7.55;2.90;;;;;;;3.46;100.00;99285.31;5223818;28;20033;-72
2023/01/09 02:42:35;;;;;;;5.88;2.55;;;;;;;3.44;100.00;99287.03;5222987;28;20026;-72
2023/01/09 02:45:06;;;;;;;6.70;2.70;;;;;;;3.41;100.00;99288.78;5226636;28;20099;-72
2023/01/09 02:47:44;;;;;;;6.27;2.37;;;;;;;3.41;100.00;99291.34;5242945;28;20484;-73
2023/01/09 02:50:35;;;;;;;7.43;2.58;;;;;;;3.42;100.00;99293.91;5244042;28;20127;-73
2023/01/09 02:53:18;;;;;;;10.63;2.70;;;;;;;3.40;100.00;99292.25;5244179;28;20036;-72
2023/01/09 02:56:23;;;;;;;7.53;2.42;;;;;;;3.39;100.00;99287.94;5243416;28;20480;-72
2023/01/09 02:59:22;;;;;;;5.00;2.47;;;;;;;3.33;100.00;99286.25;5243725;28;20042;-72
2023/01/09 03:02:07;;;;;;;9.70;2.63;;;;;;;3.34;100.00;99266.53;5244052;28;20044;-72
2023/01/09 03:05:07;;;;;;;8.95;3.03;;;;;;;3.31;100.00;99264.81;5244004;28;20029;-72
2023/01/09 03:07:47;;;;;;;10.27;2.75;;;;;;;3.35;100.00;99265.63;5243660;28;20052;-72
2023/01/09 03:10:25;;;;;;;9.20;2.90;;;;;;;3.35;100.00;99263.06;5242727;28;20552;-72
2023/01/09 03:12:59;;;;;;;7.60;3.00;;;;;;;3.28;100.00;99268.28;5243755;28;20420;-72
2023/01/09 03:15:35;;;;;;;7.63;3.05;;;;;;;3.33;100.00;99270.81;5243572;28;20053;-72
2023/01/09 03:18:10;;;;;;;10.27;3.88;;;;;;;3.32;100.00;99270.81;5243631;28;20061;-72
2023/01/09 03:20:43;;;;;;;11.23;3.30;;;;;;;3.36;100.00;99281.09;5243615;28;20538;-72
2023/01/09 03:23:14;;;;;;;8.82;2.92;;;;;;;3.34;100.00;99276.81;5243565;28;20033;-72
2023/01/09 03:25:46;;;;;;;12.00;3.43;;;;;;;3.31;100.00;99274.28;5242974;28;20067;-72
2023/01/09 03:28:25;;;;;;;10.23;3.73;;;;;;;3.36;100.00;99287.97;5242043;28;20032;-72
2023/01/09 03:30:56;;;;;;;13.23;4.20;;;;;;;3.36;100.00;99296.53;5242258;28;20029;-72
2023/01/09 03:33:28;;;;;;;8.60;3.60;;;;;;;3.37;100.00;99287.97;5243079;28;20122;-72
2023/01/09 03:35:59;;;;;;;11.20;3.93;;;;;;;3.36;100.00;99293.13;5243623;28;20036;-72
2023/01/09 03:38:31;;;;;;;11.47;3.40;;;;;;;3.34;100.00;99285.41;5243285;28;20536;-72
2023/01/09 03:41:03;;;;;;;15.60;4.00;;;;;;;3.41;100.00;99288.78;5243034;28;20021;-72
2023/01/09 03:43:35;;;;;;;6.07;3.53;;;;;;;3.39;100.00;99278.50;5243238;28;20268;-72
2023/01/09 03:46:06;;;;;;;8.40;3.43;;;;;;;3.41;100.00;99288.78;5242504;28;20107;-72
2023/01/09 03:48:38;;;;;;;9.83;4.00;;;;;;;3.47;100.00;99284.44;5242682;28;20279;-72
2023/01/09 03:51:09;;;;;;;10.23;3.13;;;;;;;3.49;100.00;99296.47;5242790;28;20029;-72
2023/01/09 03:53:41;;;;;;;8.23;2.70;;;;;;;3.44;100.00;99281.88;5242579;28;20037;-72
2023/01/09 03:56:12;;;;;;;13.13;3.03;;;;;;;3.45;100.00;99288.75;5241867;28;20037;-72
2023/01/09 03:58:43;;;;;;;12.97;3.53;;;;;;;3.48;100.00;99285.31;5242929;28;20037;-72
2023/01/09 04:01:15;;;;;;;7.73;3.50;;;;;;;3.48;100.00;99287.88;5242401;28;20117;-72
2023/01/09 04:03:46;;;;;;;9.17;3.03;;;;;;;3.50;100.00;99286.13;5242641;28;20143;-72
2023/01/09 04:06:18;;;;;;;9.03;3.23;;;;;;;3.58;100.00;99279.19;5242817;28;20060;-72
2023/01/09 04:08:49;;;;;;;8.67;3.20;;;;;;;3.63;100.00;99287.72;5242676;28;20080;-72
2023/01/09 04:11:21;;;;;;;5.73;3.10;;;;;;;3.73;100.00;99287.66;5241142;28;20085;-72
2023/01/09 04:13:52;;;;;;;14.50;3.67;;;;;;;3.76;100.00;99282.47;5242548;28;20025;-72
2023/01/09 04:16:24;;;;;;;12.00;3.33;;;;;;;3.81;100.00;99291.88;5242653;28;20044;-72
2023/01/09 04:18:55;;;;;;;11.20;3.83;;;;;;;3.89;100.00;99289.22;5241327;28;20516;-71
2023/01/09 04:21:26;;;;;;;7.73;3.50;;;;;;;3.96;100.00;99280.56;5241538;28;20120;-72
2023/01/09 04:23:58;;;;;;;9.90;3.00;;;;;;;4.02;100.00;99284.81;5241071;28;20607;-72
2023/01/09 04:26:29;;;;;;;11.77;3.10;;;;;;;4.14;100.00;99295.00;5241935;28;20060;-71
2023/01/09 04:29:01;;;;;;;8.80;2.73;;;;;;;4.16;100.00;99287.25;5241003;28;20567;-72
2023/01/09 04:31:32;;;;;;;11.77;2.90;;;;;;;4.25;100.00;99304.34;5242343;28;20480;-72
2023/01/09 04:34:03;;;;;;;7.03;2.57;;;;;;;4.27;100.00;99287.97;5242175;28;20036;-71
2023/01/09 04:36:35;;;;;;;11.27;2.53;;;;;;;4.32;100.00;99300.81;5241992;28;20033;-72
2023/01/09 04:39:06;;;;;;;10.90;3.47;;;;;;;4.38;100.00;99290.44;5242262;28;20033;-72
2023/01/09 04:41:50;;;;;;;5.73;2.00;;;;;;;4.39;100.00;99292.13;5240959;28;20030;-72
2023/01/09 04:44:26;;;;;;;8.32;2.50;;;;;;;4.42;100.00;99294.69;5242262;28;20033;-72
2023/01/09 04:46:58;;;;;;;7.40;2.28;;;;;;;4.43;100.00;99290.38;5241920;28;20167;-72
2023/01/09 04:49:29;;;;;;;6.83;2.47;;;;;;;4.49;100.00;99285.13;5242320;28;20112;-72
2023/01/09 04:52:01;;;;;;;8.60;3.10;;;;;;;4.53;100.00;99286.81;5242162;28;20041;-72
2023/01/09 04:54:33;;;;;;;5.87;1.80;;;;;;;4.58;100.00;99295.34;5242492;28;20037;-72
2023/01/09 04:57:04;;;;;;;10.18;2.30;;;;;;;4.55;100.00;99298.81;5241460;28;20511;-72
2023/01/09 04:59:36;;;;;;;10.23;3.00;;;;;;;4.60;100.00;99285.00;5242099;28;20030;-73
2023/01/09 05:02:07;;;;;;;9.83;3.50;;;;;;;4.64;100.00;99276.38;5241982;28;20032;-72
2023/01/09 05:04:39;;;;;;;7.30;2.60;;;;;;;4.64;100.00;99284.97;5241790;28;20022;-72
2023/01/09 05:07:10;;;;;;;13.20;4.30;;;;;;;4.68;100.00;99280.59;5241888;28;20187;-73
2023/01/09 05:09:42;;;;;;;9.40;2.70;;;;;;;4.68;100.00;99273.69;5241942;28;20029;-71
2023/01/09 05:12:14;;;;;;;13.90;3.22;;;;;;;4.71;100.00;99285.72;5241996;28;20121;-72
2023/01/09 05:14:45;;;;;;;11.20;2.83;;;;;;;4.72;100.00;99285.72;5241815;28;20100;-72
2023/01/09 05:17:17;;;;;;;8.00;2.70;;;;;;;4.78;100.00;99291.66;5241992;28;20116;-72
2023/01/09 05:19:48;;;;;;;15.70;3.17;;;;;;;4.78;100.00;99284.75;5242021;28;20040;-72
2023/01/09 05:22:20;;;;;;;8.13;3.17;;;;;;;4.82;100.00;99276.13;5241847;28;20068;-72
2023/01/09 05:24:51;;;;;;;7.93;2.77;;;;;;;4.86;100.00;99275.22;5241892;28;20041;-72
2023/01/09 05:27:23;;;;;;;7.60;2.70;;;;;;;4.92;100.00;99287.16;5246622;28;20037;-72
2023/01/09 05:29:54;;;;;;;7.83;2.83;;;;;;;4.92;100.00;99274.25;5260941;28;20044;-73
2023/01/09 05:32:25;;;;;;;11.40;2.50;;;;;;;4.93;100.00;99273.41;5252216;28;20484;-74
2023/01/09 05:34:57;;;;;;;5.87;2.23;;;;;;;4.98;100.00;99281.94;5246046;28;20030;-73
2023/01/09 05:37:28;;;;;;;7.93;2.67;;;;;;;4.97;100.00;99282.78;5244376;28;20107;-73
2023/01/09 05:40:00;;;;;;;13.67;3.87;;;;;;;5.04;100.00;99273.22;5245420;28;20068;-73
2023/01/09 05:42:31;;;;;;;9.90;2.40;;;;;;;5.06;100.00;99277.50;5245465;28;20069;-72
2023/01/09 05:45:03;;;;;;;15.27;2.47;;;;;;;5.11;100.00;99274.84;5245228;28;20059;-72
2023/01/09 05:47:35;;;;;;;9.32;2.22;;;;;;;5.11;100.00;99265.38;5244790;28;20079;-73
2023/01/09 05:50:07;;;;;;;8.90;2.43;;;;;;;5.18;100.00;99267.84;5244955;28;20037;-73
2023/01/09 05:52:38;;;;;;;12.03;3.00;;;;;;;5.19;100.00;99261.81;5244598;28;20378;-73
2023/01/09 05:55:12;;;;;;;9.57;2.80;;;;;;;5.23;100.00;99261.75;5243926;28;20046;-73
2023/01/09 05:57:43;;;;;;;16.83;3.42;;;;;;;5.28;100.00;99269.41;5244643;28;20041;-72
2023/01/09 06:00:15;;;;;;;8.87;2.80;;;;;;;5.31;100.00;99261.63;5244635;28;20029;-72
2023/01/09 06:02:46;;;;;;;10.43;2.93;;;;;;;5.40;100.00;99266.66;5245000;28;20029;-72
2023/01/09 06:05:18;;;;;;;9.07;3.20;;;;;;;5.38;100.00;99259.81;5244808;28;20540;-72
2023/01/09 06:07:49;;;;;;;8.13;2.53;;;;;;;5.41;100.00;99264.91;5244537;28;20036;-72
2023/01/09 06:10:20;;;;;;;10.47;2.80;;;;;;;5.44;100.00;99257.09;5244361;28;20057;-73
2023/01/09 06:12:53;;;;;;;11.37;2.70;;;;;;;5.48;100.00;99254.44;5244747;28;20026;-72
2023/01/09 06:15:24;;;;;;;11.23;2.85;;;;;;;5.49;100.00;99255.31;5244641;28;20034;-72
2023/01/09 06:17:56;;;;;;;9.50;2.73;;;;;;;5.55;100.00;99251.75;5244433;28;20045;-72
2023/01/09 06:20:27;;;;;;;11.87;3.13;;;;;;;5.56;100.00;99256.91;5243746;28;20033;-72
2023/01/09 06:22:59;;;;;;;11.53;3.10;;;;;;;5.54;100.00;99274.19;5243526;28;20099;-72
2023/01/09 06:25:30;;;;;;;9.67;2.80;;;;;;;5.62;100.00;99259.41;5244210;28;20057;-72
2023/01/09 06:28:02;;;;;;;7.17;2.10;;;;;;;5.61;100.00;99265.44;5244209;28;20109;-71
2023/01/09 06:30:34;;;;;;;11.38;2.90;;;;;;;5.61;100.00;99262.84;5244437;28;20026;-73
2023/01/09 06:33:05;;;;;;;5.77;2.63;;;;;;;5.65;100.00;99266.22;5244514;28;20057;-72
2023/01/09 06:35:36;;;;;;;10.20;2.87;;;;;;;5.70;100.00;99254.09;5244183;28;20029;-72
2023/01/09 06:38:08;;;;;;;14.57;3.07;;;;;;;5.78;100.00;99266.88;5244312;28;20065;-73
2023/01/09 06:40:39;;;;;;;15.73;4.77;;;;;;;5.79;100.00;99273.75;5244214;28;20042;-73
2023/01/09 06:43:10;;;;;;;5.87;2.10;;;;;;;5.84;100.00;99277.97;5243563;28;20043;-73
2023/01/09 06:45:42;;;;;;;12.83;2.83;;;;;;;5.85;100.00;99287.44;5243500;28;20479;-73
2023/01/09 06:48:14;;;;;;;9.43;3.10;;;;;;;6.00;100.00;99275.97;5243764;28;20061;-73
2023/01/09 06:50:47;;;;;;;9.10;2.73;;;;;;;5.97;100.00;99288.13;5242546;28;20029;-73
2023/01/09 06:53:19;;;;;;;9.82;2.88;;;;;;;5.99;100.00;99276.88;5243561;28;20449;-72
2023/01/09 06:55:51;;;;;;;11.55;2.72;;;;;;;5.99;100.00;99286.38;5243372;28;20030;-72
2023/01/09 06:58:22;;;;;;;7.97;3.13;;;;;;;6.08;100.00;99275.84;5243821;28;20033;-74
2023/01/09 07:00:55;;;;;;;9.23;2.83;;;;;;;6.13;100.00;99297.31;5243738;28;20042;-71
2023/01/09 07:03:26;;;;;;;9.07;2.70;;;;;;;6.12;100.00;99287.00;5243723;28;20491;-72
2023/01/09 07:05:57;;;;;;;6.47;2.60;;;;;;;6.15;100.00;99292.97;5243111;28;20046;-71
2023/01/09 07:08:29;;;;;;;12.73;3.70;;;;;;;6.24;100.00;99297.09;5225587;28;20091;-72
2023/01/09 07:11:00;;;;;;;13.27;3.00;;;;;;;6.14;100.00;99298.19;5243325;28;20133;-73
2023/01/09 07:13:32;;;;;;;7.50;3.17;;;;;;;5.98;100.00;99292.44;5242007;28;20034;-72
2023/01/09 07:16:04;;;;;;;9.47;2.63;;;;;;;5.85;100.00;99323.63;5242949;28;20033;-72
2023/01/09 07:18:36;;;;;;;11.27;3.55;;;;;;;5.72;100.00;99319.56;5242804;28;20041;-73
2023/01/09 07:21:07;;;;;;;10.57;2.63;;;;;;;5.70;100.00;99297.19;5243177;28;20060;-73
2023/01/09 07:23:38;;;;;;;14.17;3.43;;;;;;;5.58;100.00;99331.84;5242843;28;20056;-72
2023/01/09 07:26:10;;;;;;;13.07;2.93;;;;;;;5.51;100.00;99333.69;5242445;28;20029;-73
2023/01/09 07:28:41;;;;;;;9.50;3.00;;;;;;;5.50;100.00;99318.19;5242715;28;20041;-72
2023/01/09 07:31:12;;;;;;;11.03;2.90;;;;;;;5.40;100.00;99320.06;5242645;28;20029;-72
2023/01/09 07:33:44;;;;;;;13.13;2.97;;;;;;;5.42;100.00;99324.31;5241393;28;20107;-72
2023/01/09 07:36:15;;;;;;;8.93;2.70;;;;;;;5.42;100.00;99328.66;5243347;28;20041;-72
2023/01/09 07:38:47;;;;;;;11.70;2.80;;;;;;;5.40;100.00;99344.16;5242536;28;20087;-72
2023/01/09 07:41:18;;;;;;;13.87;3.00;;;;;;;5.37;100.00;99343.38;5242681;28;20034;-72
2023/01/09 07:43:49;;;;;;;10.63;3.00;;;;;;;5.33;100.00;99345.16;5243057;28;20033;-72
2023/01/09 07:46:21;;;;;;;13.17;3.40;;;;;;;5.37;100.00;99351.97;5243100;28;20453;-72
2023/01/09 07:48:52;;;;;;;10.40;3.20;;;;;;;5.33;100.00;99350.31;5242769;28;20025;-72
2023/01/09 07:51:24;;;;;;;14.10;3.00;;;;;;;5.35;100.00;99358.06;5241327;28;20063;-73
2023/01/09 07:53:55;;;;;;;11.07;3.83;;;;;;;5.33;100.00;99360.66;5242527;28;20053;-73
2023/01/09 07:56:26;;;;;;;12.80;2.47;;;;;;;5.34;100.00;99356.34;5240503;28;20026;-73
2023/01/09 07:58:58;;;;;;;9.37;3.10;;;;;;;5.43;100.00;99357.06;5242831;28;20036;-73
2023/01/09 08:01:29;;;;;;;9.23;2.90;;;;;;;5.39;100.00;99367.44;5242166;28;20033;-73
2023/01/09 08:04:01;;;;;;;9.20;3.33;;;;;;;5.48;100.00;99363.00;5242284;28;20038;-73
2023/01/09 08:06:32;;;;;;;13.03;3.80;;;;;;;5.48;100.00;99377.66;5241011;28;20034;-73
2023/01/09 08:09:04;;;;;;;12.07;4.27;;;;;;;5.39;100.00;99380.38;5242296;28;20037;-73
2023/01/09 08:11:35;;;;;;;11.23;3.63;;;;;;;5.38;100.00;99386.44;5242444;28;20058;-73
2023/01/09 08:14:07;;;;;;;9.70;3.40;;;;;;;5.37;100.00;99392.47;5241254;28;20037;-72
2023/01/09 08:16:38;;;;;;;10.20;3.00;;;;;;;5.32;100.00;99389.94;5241296;28;20357;-74
2023/01/09 08:19:11;;;;;;;11.07;3.70;;;;;;;5.37;100.00;99392.47;5242162;28;20033;-75
2023/01/09 08:21:42;;;;;;;11.80;3.90;;;;;;;5.41;100.00;99391.53;5242143;28;20449;-74
2023/01/09 08:24:13;;;;;;;8.83;4.30;;;;;;;5.40;100.00;99395.00;5242266;28;20036;-73
2023/01/09 08:26:45;;;;;;;11.23;3.33;;;;;;;5.41;100.00;99405.31;5240259;28;20079;-74
2023/01/09 08:29:16;;;;;;;10.17;3.43;;;;;;;5.35;100.00;99413.16;5242669;28;20480;-74
2023/01/09 08:31:47;;;;;;;6.03;3.20;;;;;;;5.39;100.00;99407.06;5243752;28;20357;-73
2023/01/09 08:34:19;;;;;;;11.53;4.43;;;;;;;5.38;100.00;99427.78;5248949;28;20447;-73
2023/01/09 08:36:52;;;;;;;13.27;3.50;;;;;;;5.39;100.00;99432.91;5248865;28;20056;-73
2023/01/09 08:39:23;;;;;;;10.60;3.50;;;;;;;5.40;100.00;99442.38;5254595;28;20136;-74
2023/01/09 08:47:35;;;;;;;7.40;3.15;;;;;;;5.34;100.00;99437.28;5249518;28;20037;-72
2023/01/09 08:50:07;;;;;;;13.10;3.70;;;;;;;5.35;100.00;99457.09;5245987;28;20026;-73
2023/01/09 08:52:38;;;;;;;10.00;3.70;;;;;;;5.35;100.00;99445.91;5244466;28;20477;-72
2023/01/09 08:55:10;;;;;;;9.90;3.80;;;;;;;5.35;100.00;99464.84;5243433;28;20065;-73
2023/01/09 08:57:52;;;;;;;10.37;3.57;;;;;;;5.34;100.00;99477.78;5243864;28;20045;-73
2023/01/09 09:00:23;;;;;;;15.48;4.60;;;;;;;5.34;100.00;99462.28;5245113;28;20057;-73
2023/01/09 09:02:57;;;;;;;10.17;3.90;;;;;;;5.37;100.00;99477.75;5244642;28;20147;-72
2023/01/09 09:05:30;;;;;;;14.30;4.50;;;;;;;5.35;100.00;99484.66;5244784;28;20022;-73
2023/01/09 09:08:02;;;;;;;8.35;3.75;;;;;;;5.33;100.00;99487.28;5247440;28;20034;-73
2023/01/09 09:10:34;;;;;;;17.15;5.22;;;;;;;5.33;100.00;99500.19;5247710;28;20064;-72
2023/01/09 09:13:06;;;;;;;9.57;3.47;;;;;;;5.34;100.00;99504.47;5247508;28;20046;-73
2023/01/09 09:15:37;;;;;;;10.27;4.10;;;;;;;5.35;100.00;99508.78;5247278;28;20034;-74
2023/01/09 09:18:09;;;;;;;12.00;3.87;;;;;;;5.33;100.00;99505.34;5246634;28;20037;-73
2023/01/09 09:20:40;;;;;;;10.37;4.03;;;;;;;5.34;100.00;99516.53;5246232;28;20037;-74
2023/01/09 09:23:12;;;;;;;8.53;4.37;;;;;;;5.36;100.00;99522.53;5245906;28;20037;-74
2023/01/09 09:25:43;;;;;;;11.47;3.70;;;;;;;5.36;100.00;99519.94;5245378;28;20037;-73
2023/01/09 09:28:15;;;;;;;11.17;4.20;;;;;;;5.35;100.00;99529.44;5245743;28;20030;-73
2023/01/09 09:30:46;;;;;;;8.60;3.97;;;;;;;5.35;100.00;99533.75;5245897;28;20041;-74
2023/01/09 09:33:17;;;;;;;14.03;4.47;;;;;;;5.33;100.00;99538.94;5245460;28;20030;-74
2023/01/09 09:35:49;;;;;;;8.80;3.87;;;;;;;5.32;100.00;99542.41;5246003;28;20057;-74
2023/01/09 09:38:20;;;;;;;12.73;4.27;;;;;;;5.32;100.00;99546.72;5244448;28;20030;-74
2023/01/09 09:40:51;;;;;;;10.73;4.23;;;;;;;5.33;100.00;99548.41;5245664;28;20037;-74
2023/01/09 09:47:00;;;;;;;11.55;4.57;;;;;;;5.36;100.00;99554.41;5245313;28;20029;-74
2023/01/09 09:49:49;;;;;;;11.93;4.53;;;;;;;5.41;100.00;99568.16;5245059;28;20033;-74
2023/01/09 09:52:20;;;;;;;13.70;5.28;;;;;;;5.41;100.00;99573.31;5245308;28;20448;-73
2023/01/09 09:54:52;;;;;;;12.53;4.77;;;;;;;5.44;100.00;99581.03;5244850;28;20034;-73
2023/01/09 09:57:31;;;;;;;9.10;4.43;;;;;;;5.45;100.00;99603.41;5243237;28;20423;-74
2023/01/09 10:00:05;;;;;;;16.80;6.38;;;;;;;5.47;100.00;99606.84;5244945;28;20029;-73
2023/01/09 10:02:50;;;;;;;8.98;5.55;;;;;;;5.48;100.00;99608.53;5244964;28;20036;-74
2023/01/09 10:05:33;;;;;;;12.15;5.22;;;;;;;5.53;100.00;99613.66;5244694;28;20041;-74
2023/01/09 10:08:23;;;;;;;15.63;5.65;;;;;;;5.55;100.00;99611.91;5244583;28;20447;-73
2023/01/09 10:10:54;;;;;;;14.15;4.80;;;;;;;5.62;100.00;99623.91;5244941;28;20053;-73
2023/01/09 10:16:28;;;;;;;9.05;4.93;;;;;;;5.73;100.00;99636.72;5244819;28;20037;-73
2023/01/09 10:19:05;;;;;;;12.73;5.15;;;;;;;5.72;100.00;99642.75;5243507;28;20045;-73
2023/01/09 10:21:56;;;;;;;10.43;6.00;;;;;;;5.72;100.00;99636.75;5244761;28;20103;-73
2023/01/09 10:24:39;;;;;;;10.85;5.75;;;;;;;5.69;100.00;99647.13;5245032;28;20441;-73
2023/01/09 10:27:16;;;;;;;;;;;;;;;5.69;100.00;99652.28;5243191;28;20047;-73
2023/01/09 10:30:03;;;;;;;16.67;5.15;;;;;;;5.71;100.00;99659.13;5244425;28;19982;-73
2023/01/09 10:32:49;;;;;;;11.88;4.90;;;;;;;5.68;100.00;99659.16;5244204;28;20037;-73
2023/01/09 10:35:53;;;;;;;9.85;4.90;;;;;;;5.66;100.00;99650.56;5244303;28;20372;-74
2023/01/09 10:38:32;;;;;;;;;;;;;;;5.72;100.00;99654.84;5244604;28;20045;-74
2023/01/09 10:41:15;;;;;;;9.68;4.35;;;;;;;5.68;100.00;99654.00;5244071;28;19920;-74
2023/01/09 10:44:07;;;;;;;10.32;5.13;;;;;;;5.74;100.00;99660.84;5244364;28;20030;-74
2023/01/09 10:46:46;;;;;;;11.85;5.75;;;;;;;5.76;100.00;99656.50;5244094;28;20052;-73
2023/01/09 10:49:18;;;;;;;15.52;5.72;;;;;;;5.73;100.00;99643.59;5244369;28;20038;-73
2023/01/09 10:51:51;;;;;;;12.02;6.15;;;;;;;5.67;100.00;99662.66;5244615;28;20041;-73
2023/01/09 10:54:23;;;;;;;10.90;4.95;;;;;;;5.71;100.00;99663.47;5243972;28;20029;-74
2023/01/09 10:57:18;;;;;;;15.20;6.07;;;;;;;5.72;100.00;99670.34;5242497;28;20040;-74
2023/01/09 10:59:49;;;;;;;13.80;5.95;;;;;;;6.02;100.00;99675.19;5243500;28;20029;-74
2023/01/09 11:02:30;;;;;;;9.53;5.20;;;;;;;6.40;100.00;99680.75;5243609;28;20519;-74
2023/01/09 11:05:02;;;;;;;14.40;5.63;;;;;;;6.88;100.00;99672.31;5243872;28;20025;-74
2023/01/09 11:07:37;;;;;;;9.47;4.93;;;;;;;7.07;100.00;99675.47;5243656;28;20025;-74
2023/01/09 11:10:11;;;;;;;12.05;6.28;;;;;;;6.98;100.00;99678.19;5243140;28;20042;-74
2023/01/09 11:12:42;;;;;;;8.07;3.65;;;;;;;6.88;100.00;99680.09;5243691;28;20060;-74
2023/01/09 11:15:19;;;;;;;8.23;4.03;;;;;;;7.08;100.00;99684.94;5242268;28;20449;-74
2023/01/09 11:17:51;;;;;;;9.00;4.10;;;;;;;7.34;100.00;99686.25;5243290;28;20029;-74
2023/01/09 11:20:27;;;;;;;11.43;4.20;;;;;;;7.27;100.00;99685.50;5243194;28;20034;-74
2023/01/09 11:22:59;;;;;;;12.55;3.88;;;;;;;7.42;100.00;99689.56;5243685;28;20473;-73
2023/01/09 11:25:30;;;;;;;12.90;5.67;;;;;;;7.64;100.00;99688.28;5242225;28;20029;-74
2023/01/09 11:28:05;;;;;;;9.23;4.00;;;;;;;8.09;100.00;99703.00;5242560;28;20121;-73
2023/01/09 11:30:51;;;;;;;9.73;4.00;;;;;;;8.66;100.00;99703.56;5242361;28;20029;-74
2023/01/09 11:33:28;;;;;;;7.60;4.13;;;;;;;8.78;100.00;99712.88;5242891;28;20461;-73
2023/01/09 11:35:59;;;;;;;11.15;3.40;;;;;;;8.07;100.00;99711.72;5242937;28;20025;-72
2023/01/09 11:38:45;;;;;;;7.43;3.17;;;;;;;7.73;100.00;99722.72;5242572;28;20578;-73
2023/01/09 11:41:23;;;;;;;7.22;3.30;;;;;;;7.48;100.00;99723.16;5243046;28;20469;-74
2023/01/09 11:43:57;;;;;;;7.47;3.50;;;;;;;7.25;100.00;99723.56;5243000;28;20411;-74
2023/01/09 11:46:37;;;;;;;9.93;3.85;;;;;;;7.22;100.00;99734.81;5242575;28;20025;-72
2023/01/09 11:49:12;;;;;;;9.27;3.88;;;;;;;7.08;100.00;99726.41;5242901;28;20120;-73
2023/01/09 11:51:43;;;;;;;9.90;4.90;;;;;;;6.91;100.00;99737.88;5243004;28;20154;-73
2023/01/09 11:54:21;;;;;;;11.87;5.03;;;;;;;6.96;100.00;99732.63;5260192;28;20034;-73
2023/01/09 11:56:54;;;;;;;12.68;4.90;;;;;;;6.78;100.00;99738.06;5260859;28;20491;-74
2023/01/09 11:59:29;;;;;;;10.65;4.47;;;;;;;6.59;100.00;99732.31;5246316;28;20051;-73
2023/01/09 12:02:29;;;;;;;9.18;4.57;;;;;;;6.52;100.00;99736.69;5245586;28;20485;-72
2023/01/09 12:05:33;;;;;;;12.00;4.82;;;;;;;6.62;100.00;99727.06;5243890;28;20512;-72
2023/01/09 12:08:08;;;;;;;14.95;5.63;;;;;;;6.96;100.00;99718.84;5244281;28;20106;-73
2023/01/09 12:11:06;;;;;;;9.82;4.50;;;;;;;8.00;100.00;99729.13;5243935;28;20111;-72
2023/01/09 12:14:22;;;;;;;8.52;4.28;;;;;;;8.26;100.00;99733.84;5243927;28;20096;-72
2023/01/09 12:17:08;;;;;;;8.55;4.00;;;;;;;8.65;99.16;99739.09;5242730;28;20480;-72
2023/01/09 12:20:08;;;;;;;10.50;4.00;;;;;;;9.18;96.21;99735.34;5243725;28;20030;-72
2023/01/09 12:22:57;;;;;;;9.93;4.32;;;;;;;8.83;95.15;99744.78;5243517;28;20034;-72